Time;durP1;ratioP1;P1;durP2;ratioP2;P2;SDS_P1;SDS_P2;PMS_P1;PMS_P2;Temp;Humidity;BMP_temperature;BMP_pressure;BME280_temperature;BME280_humidity;BME280_pressure;Samples;Min_cycle;Max_cycle;Signal;HPM_P1;HPM_P2
2023/03/01 00:01:09;;;;;;;;;;;;;;;;;;4939723;28;19926;-78
2023/03/01 00:03:56;;;;;;;;;;;;;;;;;;4935172;29;19930;-77
2023/03/01 00:06:45;;;;;;;;;;;;;;;;;;4932581;28;19915;-78
2023/03/01 00:09:32;;;;;;;;;;;;;;;;;;4944071;29;19919;-77
2023/03/01 00:12:18;;;;;;;;;;;;;;;;;;4939471;28;19956;-77
2023/03/01 00:15:05;;;;;;;;;;;;;;;;;;4941564;28;19919;-77
2023/03/01 00:17:51;;;;;;;;;;;;;;;;;;4944579;28;19927;-77
2023/03/01 00:20:38;;;;;;;;;;;;;;;;;;4933815;29;19957;-77
2023/03/01 00:23:24;;;;;;;;;;;;;;;;;;4924633;29;19974;-77
2023/03/01 00:26:11;;;;;;;;;;;;;;;;;;4933675;28;19937;-77
2023/03/01 00:28:57;;;;;;;;;;;;;;;;;;4947153;28;19929;-76
2023/03/01 00:31:44;;;;;;;;;;;;;;;;;;4938247;28;20076;-77
2023/03/01 00:34:30;;;;;;;;;;;;;;;;;;4932430;29;19923;-77
2023/03/01 00:37:17;;;;;;;;;;;;;;;;;;4941834;29;20287;-77
2023/03/01 00:40:05;;;;;;;;;;;;;;;;;;4941330;29;19918;-76
2023/03/01 00:42:52;;;;;;;;;;;;;;;;;;4933351;29;20279;-77
2023/03/01 00:45:38;;;;;;;;;;;;;;;;;;4942058;29;19926;-77
2023/03/01 00:48:25;;;;;;;;;;;;;;;;;;4944111;28;19929;-77
2023/03/01 00:51:11;;;;;;;;;;;;;;;;;;4940740;28;19929;-76
2023/03/01 00:53:58;;;;;;;;;;;;;;;;;;4937189;28;19919;-77
2023/03/01 00:56:44;;;;;;;;;;;;;;;;;;4930800;29;19918;-78
2023/03/01 00:59:31;;;;;;;;;;;;;;;;;;4928895;29;19938;-78
2023/03/01 01:02:17;;;;;;;;;;;;;;;;;;4946074;29;19919;-78
2023/03/01 01:05:04;;;;;;;;;;;;;;;;;;4944289;29;20297;-78
2023/03/01 01:07:50;;;;;;;;;;;;;;;;;;4932597;29;19922;-78
2023/03/01 01:10:37;;;;;;;;;;;;;;;;;;4932667;29;19934;-77
2023/03/01 01:13:23;;;;;;;;;;;;;;;;;;4948321;28;19922;-76
2023/03/01 01:16:10;;;;;;;;;;;;;;;;;;4930502;29;19915;-76
2023/03/01 01:18:56;;;;;;;;;;;;;;;;;;4936469;29;19927;-77
2023/03/01 01:21:43;;;;;;;;;;;;;;;;;;4943401;28;19933;-77
2023/03/01 01:24:29;;;;;;;;;;;;;;;;;;4946985;28;19925;-77
2023/03/01 01:27:15;;;;;;;;;;;;;;;;;;4932568;28;19923;-78
2023/03/01 01:30:02;;;;;;;;;;;;;;;;;;4947368;29;19918;-77
2023/03/01 01:32:48;;;;;;;;;;;;;;;;;;4941066;29;19915;-77
2023/03/01 01:35:35;;;;;;;;;;;;;;;;;;4942121;28;19925;-77
2023/03/01 01:38:21;;;;;;;;;;;;;;;;;;4929774;29;19926;-76
2023/03/01 01:41:08;;;;;;;;;;;;;;;;;;4942091;29;20271;-76
2023/03/01 01:43:57;;;;;;;;;;;;;;;;;;4926000;29;19926;-76
2023/03/01 01:46:43;;;;;;;;;;;;;;;;;;4932089;29;20417;-76
2023/03/01 01:49:30;;;;;;;;;;;;;;;;;;4945763;29;20398;-76
2023/03/01 01:52:16;;;;;;;;;;;;;;;;;;4939167;29;19915;-77
2023/03/01 01:55:03;;;;;;;;;;;;;;;;;;4931236;28;19918;-77
2023/03/01 01:57:49;;;;;;;;;;;;;;;;;;4941708;29;19926;-76
2023/03/01 02:00:36;;;;;;;;;;;;;;;;;;4942408;29;19945;-77
2023/03/01 02:03:22;;;;;;;;;;;;;;;;;;4933870;29;19941;-76
2023/03/01 02:06:09;;;;;;;;;;;;;;;;;;4943036;28;19925;-75
2023/03/01 02:08:55;;;;;;;;;;;;;;;;;;4939670;28;19962;-76
2023/03/01 02:11:42;;;;;;;;;;;;;;;;;;4950880;28;19930;-74
2023/03/01 02:14:28;;;;;;;;;;;;;;;;;;4930424;29;19919;-76
2023/03/01 02:17:15;;;;;;;;;;;;;;;;;;4927436;29;19933;-77
2023/03/01 02:20:01;;;;;;;;;;;;;;;;;;4931526;29;20287;-75
2023/03/01 02:22:48;;;;;;;;;;;;;;;;;;4932156;29;19922;-76
2023/03/01 02:25:34;;;;;;;;;;;;;;;;;;4947643;28;19933;-76
2023/03/01 02:28:21;;;;;;;;;;;;;;;;;;4944465;29;19919;-76
2023/03/01 02:34:13;;;;;;;;;;;;;;;;;;4944986;28;20375;-76
2023/03/01 02:36:59;;;;;;;;;;;;;;;;;;4943101;28;19942;-76
2023/03/01 02:39:46;;;;;;;;;;;;;;;;;;4946464;28;19923;-76
2023/03/01 02:42:32;;;;;;;;;;;;;;;;;;4944008;29;19999;-76
2023/03/01 02:45:19;;;;;;;;;;;;;;;;;;4923139;29;19930;-76
2023/03/01 02:48:05;;;;;;;;;;;;;;;;;;4946334;28;19934;-76
2023/03/01 02:50:52;;;;;;;;;;;;;;;;;;4940630;29;20468;-77
2023/03/01 02:53:38;;;;;;;;;;;;;;;;;;4944288;29;19945;-76
2023/03/01 02:56:25;;;;;;;;;;;;;;;;;;4930054;29;19925;-76
2023/03/01 02:59:11;;;;;;;;;;;;;;;;;;4932127;29;19926;-76
2023/03/01 03:01:58;;;;;;;;;;;;;;;;;;4936550;28;19914;-76
2023/03/01 03:04:44;;;;;;;;;;;;;;;;;;4942321;29;19923;-76
2023/03/01 03:07:31;;;;;;;;;;;;;;;;;;4929211;29;19922;-76
2023/03/01 03:10:19;;;;;;;;;;;;;;;;;;4940495;28;19927;-76
2023/03/01 03:13:05;;;;;;;;;;;;;;;;;;4936083;29;19919;-75
2023/03/01 03:15:52;;;;;;;;;;;;;;;;;;4937603;29;19918;-76
2023/03/01 03:18:38;;;;;;;;;;;;;;;;;;4937967;28;19933;-76
2023/03/01 03:21:25;;;;;;;;;;;;;;;;;;4939220;28;19923;-77
2023/03/01 03:24:11;;;;;;;;;;;;;;;;;;4944836;29;19926;-76
2023/03/01 03:26:58;;;;;;;;;;;;;;;;;;4944701;29;20383;-77
2023/03/01 03:29:44;;;;;;;;;;;;;;;;;;4942492;28;19922;-76
2023/03/01 03:32:31;;;;;;;;;;;;;;;;;;4939916;29;20304;-77
2023/03/01 03:35:17;;;;;;;;;;;;;;;;;;4945967;28;19925;-77
2023/03/01 03:38:05;;;;;;;;;;;;;;;;;;4944652;28;20456;-76
2023/03/01 03:40:51;;;;;;;;;;;;;;;;;;4930149;29;19941;-77
2023/03/01 03:43:38;;;;;;;;;;;;;;;;;;4938445;29;20688;-76
2023/03/01 03:46:25;;;;;;;;;;;;;;;;;;4929485;29;19980;-81
2023/03/01 03:49:11;;;;;;;;;;;;;;;;;;4951631;28;19918;-77
2023/03/01 03:51:58;;;;;;;;;;;;;;;;;;4942402;28;19965;-76
2023/03/01 03:54:44;;;;;;;;;;;;;;;;;;4955055;28;19958;-76
2023/03/01 03:57:31;;;;;;;;;;;;;;;;;;4934857;28;20496;-76
2023/03/01 04:00:17;;;;;;;;;;;;;;;;;;4947912;29;19930;-75
2023/03/01 04:03:04;;;;;;;;;;;;;;;;;;4932345;29;19925;-75
2023/03/01 04:05:50;;;;;;;;;;;;;;;;;;4940337;28;19919;-76
2023/03/01 04:08:37;;;;;;;;;;;;;;;;;;4947444;29;19929;-76
2023/03/01 04:11:26;;;;;;;;;;;;;;;;;;4943330;28;20584;-77
2023/03/01 04:14:27;;;;;;;;;;;;;;;;;;5047073;27;19932;-76
2023/03/01 04:17:14;;;;;;;;;;;;;;;;;;5018825;28;19924;-76
2023/03/01 04:20:05;;;;;;;;;;;;;;;;;;5018551;28;19921;-76
2023/03/01 04:22:51;;;;;;;;;;;;;;;;;;5008073;28;19921;-76
2023/03/01 04:25:38;;;;;;;;;;;;;;;;;;5006376;28;20290;-76
2023/03/01 04:28:25;;;;;;;;;;;;;;;;;;5094982;28;19916;-77
2023/03/01 04:31:17;;;;;;;;;;;;;;;;;;5040414;28;19916;-77
2023/03/01 04:34:03;;;;;;;;;;;;;;;;;;5072346;28;19928;-77
2023/03/01 04:36:50;;;;;;;;;;;;;;;;;;5055091;28;19931;-76
2023/03/01 04:39:45;;;;;;;;;;;;;;;;;;5049241;28;19930;-77
2023/03/01 04:42:31;;;;;;;;;;;;;;;;;;5065401;28;20261;-76
2023/03/01 04:45:18;;;;;;;;;;;;;;;;;;5063707;28;19917;-77
2023/03/01 04:48:04;;;;;;;;;;;;;;;;;;5081144;28;19913;-77
2023/03/01 04:50:51;;;;;;;;;;;;;;;;;;5072757;28;19927;-77
2023/03/01 04:53:37;;;;;;;;;;;;;;;;;;5065429;28;19939;-75
2023/03/01 04:56:23;;;;;;;;;;;;;;;;;;5070037;28;20320;-75
2023/03/01 04:59:12;;;;;;;;;;;;;;;;;;5074848;28;19920;-76
2023/03/01 05:02:00;;;;;;;;;;;;;;;;;;5069044;28;19923;-75
2023/03/01 05:04:46;;;;;;;;;;;;;;;;;;5076066;28;19935;-75
2023/03/01 05:07:33;;;;;;;;;;;;;;;;;;5067651;28;19919;-74
2023/03/01 05:10:19;;;;;;;;;;;;;;;;;;5073179;28;19929;-75
2023/03/01 05:13:06;;;;;;;;;;;;;;;;;;5068041;28;19931;-76
2023/03/01 05:15:52;;;;;;;;;;;;;;;;;;5080245;28;19920;-76
2023/03/01 05:18:39;;;;;;;;;;;;;;;;;;5076549;28;19916;-76
2023/03/01 05:21:25;;;;;;;;;;;;;;;;;;5070171;28;19921;-77
2023/03/01 05:24:12;;;;;;;;;;;;;;;;;;5062634;28;20291;-77
2023/03/01 05:26:58;;;;;;;;;;;;;;;;;;5064240;28;19924;-76
2023/03/01 05:29:45;;;;;;;;;;;;;;;;;;5062926;28;19923;-76
2023/03/01 05:32:31;;;;;;;;;;;;;;;;;;5060873;28;19924;-78
2023/03/01 05:35:18;;;;;;;;;;;;;;;;;;5058343;28;19919;-77
2023/03/01 05:38:05;;;;;;;;;;;;;;;;;;5065184;28;20232;-77
2023/03/01 05:40:52;;;;;;;;;;;;;;;;;;5066442;28;19920;-76
2023/03/01 05:43:41;;;;;;;;;;;;;;;;;;5064663;28;20306;-76
2023/03/01 05:46:29;;;;;;;;;;;;;;;;;;5061507;28;19920;-76
2023/03/01 05:49:15;;;;;;;;;;;;;;;;;;5059681;28;19916;-75
2023/03/01 05:52:02;;;;;;;;;;;;;;;;;;5052950;28;19924;-76
2023/03/01 05:54:49;;;;;;;;;;;;;;;;;;5055199;28;19925;-77
2023/03/01 05:57:35;;;;;;;;;;;;;;;;;;5064563;28;19920;-77
2023/03/01 06:00:22;;;;;;;;;;;;;;;;;;5061932;28;19913;-77
2023/03/01 06:03:08;;;;;;;;;;;;;;;;;;5055296;28;19935;-76
2023/03/01 06:05:55;;;;;;;;;;;;;;;;;;5060527;28;19920;-76
2023/03/01 06:08:41;;;;;;;;;;;;;;;;;;5060819;28;19979;-76
2023/03/01 06:11:28;;;;;;;;;;;;;;;;;;5062399;28;19927;-76
2023/03/01 06:14:14;;;;;;;;;;;;;;;;;;5059210;28;19935;-77
2023/03/01 06:17:01;;;;;;;;;;;;;;;;;;5061078;28;19920;-77
2023/03/01 06:19:47;;;;;;;;;;;;;;;;;;5055240;28;19912;-77
2023/03/01 06:22:34;;;;;;;;;;;;;;;;;;5055961;28;20303;-77
2023/03/01 06:25:20;;;;;;;;;;;;;;;;;;5060765;28;19929;-76
2023/03/01 06:28:07;;;;;;;;;;;;;;;;;;5064019;28;19916;-77
2023/03/01 06:30:53;;;;;;;;;;;;;;;;;;5058879;28;19917;-77
2023/03/01 06:33:40;;;;;;;;;;;;;;;;;;5049677;28;20502;-76
2023/03/01 06:36:26;;;;;;;;;;;;;;;;;;5067121;28;20041;-76
2023/03/01 06:39:13;;;;;;;;;;;;;;;;;;5050003;28;20571;-76
2023/03/01 06:41:59;;;;;;;;;;;;;;;;;;5064895;28;19920;-76
2023/03/01 06:44:46;;;;;;;;;;;;;;;;;;5066531;28;19917;-75
2023/03/01 06:47:33;;;;;;;;;;;;;;;;;;5062783;28;19924;-76
2023/03/01 06:50:19;;;;;;;;;;;;;;;;;;5055207;28;19917;-79
2023/03/01 06:53:06;;;;;;;;;;;;;;;;;;5063581;28;20398;-76
2023/03/01 06:55:52;;;;;;;;;;;;;;;;;;5054597;28;19920;-75
2023/03/01 06:58:39;;;;;;;;;;;;;;;;;;5055174;28;19916;-76
2023/03/01 07:01:25;;;;;;;;;;;;;;;;;;5058726;28;20381;-75
2023/03/01 07:04:12;;;;;;;;;;;;;;;;;;5059503;28;19919;-76
2023/03/01 07:06:58;;;;;;;;;;;;;;;;;;5036563;28;19912;-77
2023/03/01 07:09:45;;;;;;;;;;;;;;;;;;5055442;28;19920;-79
2023/03/01 07:12:31;;;;;;;;;;;;;;;;;;5055444;28;20343;-80
2023/03/01 07:15:17;;;;;;;;;;;;;;;;;;5040506;28;19931;-79
2023/03/01 07:18:04;;;;;;;;;;;;;;;;;;5056741;28;19916;-79
2023/03/01 07:20:51;;;;;;;;;;;;;;;;;;5055790;28;19927;-79
2023/03/01 07:23:37;;;;;;;;;;;;;;;;;;5055988;28;19931;-79
2023/03/01 07:26:24;;;;;;;;;;;;;;;;;;5051307;28;20327;-79
2023/03/01 07:29:10;;;;;;;;;;;;;;;;;;5051966;28;19925;-79
2023/03/01 07:31:57;;;;;;;;;;;;;;;;;;5055160;28;19924;-79
2023/03/01 07:34:43;;;;;;;;;;;;;;;;;;5052789;28;19924;-78
2023/03/01 07:37:30;;;;;;;;;;;;;;;;;;5058421;28;19925;-78
2023/03/01 07:40:16;;;;;;;;;;;;;;;;;;5042314;28;19927;-79
2023/03/01 07:43:03;;;;;;;;;;;;;;;;;;5048449;28;19912;-78
2023/03/01 07:45:49;;;;;;;;;;;;;;;;;;5056137;28;19919;-78
2023/03/01 07:48:35;;;;;;;;;;;;;;;;;;5043289;28;19912;-79
2023/03/01 07:51:22;;;;;;;;;;;;;;;;;;5061267;28;19970;-79
2023/03/01 07:54:08;;;;;;;;;;;;;;;;;;5055312;28;19928;-79
2023/03/01 07:56:55;;;;;;;;;;;;;;;;;;5058507;28;19953;-80
2023/03/01 07:59:41;;;;;;;;;;;;;;;;;;5058150;28;20319;-79
2023/03/01 08:02:28;;;;;;;;;;;;;;;;;;5066002;28;19916;-79
2023/03/01 08:05:14;;;;;;;;;;;;;;;;;;5064756;28;19913;-78
2023/03/01 08:08:01;;;;;;;;;;;;;;;;;;5068593;28;19917;-78
2023/03/01 08:10:47;;;;;;;;;;;;;;;;;;5052157;28;19924;-79
2023/03/01 08:13:34;;;;;;;;;;;;;;;;;;5054124;28;19924;-78
2023/03/01 08:16:20;;;;;;;;;;;;;;;;;;5050710;28;19924;-78
2023/03/01 08:19:07;;;;;;;;;;;;;;;;;;5054682;28;19921;-78
2023/03/01 08:21:53;;;;;;;;;;;;;;;;;;5067907;28;19928;-78
2023/03/01 08:24:40;;;;;;;;;;;;;;;;;;5047198;28;19921;-78
2023/03/01 08:27:26;;;;;;;;;;;;;;;;;;5044336;28;20275;-78
2023/03/01 08:30:13;;;;;;;;;;;;;;;;;;5064371;28;19924;-79
2023/03/01 08:32:59;;;;;;;;;;;;;;;;;;5052918;28;20291;-79
2023/03/01 08:35:46;;;;;;;;;;;;;;;;;;5055531;28;19923;-79
2023/03/01 08:38:32;;;;;;;;;;;;;;;;;;5053232;28;19940;-79
2023/03/01 08:41:19;;;;;;;;;;;;;;;;;;5015502;28;19964;-79
2023/03/01 08:44:11;;;;;;;;;;;;;;;;;;5047083;28;20288;-79
2023/03/01 08:46:57;;;;;;;;;;;;;;;;;;5056497;28;19916;-79
2023/03/01 08:49:44;;;;;;;;;;;;;;;;;;5059604;28;19916;-80
2023/03/01 08:52:30;;;;;;;;;;;;;;;;;;5065795;28;19931;-79
2023/03/01 08:55:17;;;;;;;;;;;;;;;;;;5055376;28;20400;-80
2023/03/01 08:58:03;;;;;;;;;;;;;;;;;;5057072;28;19928;-79
2023/03/01 09:00:50;;;;;;;;;;;;;;;;;;5064004;28;19920;-80
2023/03/01 09:03:36;;;;;;;;;;;;;;;;;;5055398;28;19920;-78
2023/03/01 09:06:23;;;;;;;;;;;;;;;;;;5057571;28;19916;-78
2023/03/01 09:09:09;;;;;;;;;;;;;;;;;;5059186;28;19916;-78
2023/03/01 09:11:56;;;;;;;;;;;;;;;;;;5068308;28;19917;-77
2023/03/01 09:14:43;;;;;;;;;;;;;;;;;;5064633;28;19939;-78
2023/03/01 09:17:29;;;;;;;;;;;;;;;;;;5060776;28;19924;-76
2023/03/01 09:20:16;;;;;;;;;;;;;;;;;;5069548;28;19916;-77
2023/03/01 09:23:02;;;;;;;;;;;;;;;;;;5060796;28;19935;-77
2023/03/01 09:25:49;;;;;;;;;;;;;;;;;;5062984;28;19989;-79
2023/03/01 09:28:35;;;;;;;;;;;;;;;;;;5052765;28;20301;-74
2023/03/01 09:31:22;;;;;;;;;;;;;;;;;;5057884;28;19923;-74
2023/03/01 09:34:08;;;;;;;;;;;;;;;;;;5049021;28;19939;-74
2023/03/01 09:36:54;;;;;;;;;;;;;;;;;;5060005;28;19916;-75
2023/03/01 09:39:41;;;;;;;;;;;;;;;;;;5058151;28;19923;-75
2023/03/01 09:42:27;;;;;;;;;;;;;;;;;;5063797;28;19922;-75
2023/03/01 09:45:14;;;;;;;;;;;;;;;;;;5051513;28;19917;-75
2023/03/01 09:48:00;;;;;;;;;;;;;;;;;;5053410;28;19932;-75
2023/03/01 09:50:47;;;;;;;;;;;;;;;;;;5061641;28;19920;-75
2023/03/01 09:53:35;;;;;;;;;;;;;;;;;;5062105;28;19963;-75
2023/03/01 09:56:22;;;;;;;;;;;;;;;;;;5051434;28;19925;-75
2023/03/01 09:59:08;;;;;;;;;;;;;;;;;;5060448;28;19916;-75
2023/03/01 10:01:55;;;;;;;;;;;;;;;;;;5062607;28;19920;-75
2023/03/01 10:04:41;;;;;;;;;;;;;;;;;;5058901;28;19921;-75
2023/03/01 10:07:28;;;;;;;;;;;;;;;;;;5066632;28;19920;-75
2023/03/01 10:10:14;;;;;;;;;;;;;;;;;;5065358;28;20703;-74
2023/03/01 10:13:01;;;;;;;;;;;;;;;;;;5053508;28;19936;-75
2023/03/01 10:15:47;;;;;;;;;;;;;;;;;;5055234;28;20363;-74
2023/03/01 10:18:36;;;;;;;;;;;;;;;;;;5065087;28;19932;-75
2023/03/01 10:21:23;;;;;;;;;;;;;;;;;;5070401;28;19913;-75
2023/03/01 10:24:09;;;;;;;;;;;;;;;;;;5060352;28;19917;-74
2023/03/01 10:26:59;;;;;;;;;;;;;;;;;;5064425;28;19917;-75
2023/03/01 10:29:45;;;;;;;;;;;;;;;;;;5055001;28;20474;-75
2023/03/01 10:32:32;;;;;;;;;;;;;;;;;;5045633;28;19917;-75
2023/03/01 10:35:18;;;;;;;;;;;;;;;;;;5057940;28;19920;-76
2023/03/01 10:38:04;;;;;;;;;;;;;;;;;;5060176;28;19912;-74
2023/03/01 10:40:51;;;;;;;;;;;;;;;;;;5064891;28;19913;-74
2023/03/01 10:43:37;;;;;;;;;;;;;;;;;;5058153;28;20660;-74
2023/03/01 10:46:24;;;;;;;;;;;;;;;;;;5061790;28;19927;-75
2023/03/01 10:49:10;;;;;;;;;;;;;;;;;;5060665;28;19921;-74
2023/03/01 10:51:57;;;;;;;;;;;;;;;;;;5052770;28;20388;-74
2023/03/01 10:54:43;;;;;;;;;;;;;;;;;;5064547;28;19929;-74
2023/03/01 10:57:30;;;;;;;;;;;;;;;;;;5066044;28;19921;-74
2023/03/01 11:00:18;;;;;;;;;;;;;;;;;;5059895;28;19924;-75
2023/03/01 11:03:05;;;;;;;;;;;;;;;;;;5062724;28;19929;-75
2023/03/01 11:05:51;;;;;;;;;;;;;;;;;;5068153;28;19947;-74
2023/03/01 11:08:38;;;;;;;;;;;;;;;;;;5047674;28;19939;-75
2023/03/01 11:11:25;;;;;;;;;;;;;;;;;;5051977;28;19913;-74
2023/03/01 11:14:11;;;;;;;;;;;;;;;;;;5055629;28;19940;-76
2023/03/01 11:16:58;;;;;;;;;;;;;;;;;;5053567;28;19924;-74
2023/03/01 11:19:44;;;;;;;;;;;;;;;;;;5049833;28;19922;-76
2023/03/01 11:22:31;;;;;;;;;;;;;;;;;;5060152;28;19924;-75
2023/03/01 11:25:17;;;;;;;;;;;;;;;;;;5069266;28;19931;-75
2023/03/01 11:28:03;;;;;;;;;;;;;;;;;;5058249;28;19920;-76
2023/03/01 11:30:50;;;;;;;;;;;;;;;;;;5052415;28;19927;-74
2023/03/01 11:33:36;;;;;;;;;;;;;;;;;;5053507;28;19929;-73
2023/03/01 11:36:23;;;;;;;;;;;;;;;;;;5058957;28;20244;-74
2023/03/01 11:39:09;;;;;;;;;;;;;;;;;;5056598;28;19927;-73
2023/03/01 11:41:56;;;;;;;;;;;;;;;;;;5056174;28;19974;-74
2023/03/01 11:44:42;;;;;;;;;;;;;;;;;;5063349;28;19912;-74
2023/03/01 11:47:29;;;;;;;;;;;;;;;;;;5057104;28;19935;-74
2023/03/01 11:50:15;;;;;;;;;;;;;;;;;;5061256;28;19917;-74
2023/03/01 11:53:02;;;;;;;;;;;;;;;;;;5063542;28;19927;-74
2023/03/01 11:55:48;;;;;;;;;;;;;;;;;;5054202;28;19917;-74
2023/03/01 11:58:35;;;;;;;;;;;;;;;;;;5062702;28;19920;-74
2023/03/01 12:01:21;;;;;;;;;;;;;;;;;;5056163;28;20358;-74
2023/03/01 12:04:08;;;;;;;;;;;;;;;;;;5057751;28;19913;-73
2023/03/01 12:06:54;;;;;;;;;;;;;;;;;;5058341;28;19923;-73
2023/03/01 12:09:41;;;;;;;;;;;;;;;;;;5055997;28;19923;-73
2023/03/01 12:12:28;;;;;;;;;;;;;;;;;;5058804;28;19929;-74
2023/03/01 12:15:14;;;;;;;;;;;;;;;;;;5054430;28;20403;-73
2023/03/01 12:18:01;;;;;;;;;;;;;;;;;;5054097;28;20126;-73
2023/03/01 12:20:47;;;;;;;;;;;;;;;;;;5046448;28;19928;-74
2023/03/01 12:23:33;;;;;;;;;;;;;;;;;;5052671;28;19920;-73
2023/03/01 12:26:20;;;;;;;;;;;;;;;;;;5067188;28;19921;-74
2023/03/01 12:29:06;;;;;;;;;;;;;;;;;;5055795;28;19917;-74
2023/03/01 12:31:53;;;;;;;;;;;;;;;;;;5070170;28;19926;-73
2023/03/01 12:34:41;;;;;;;;;;;;;;;;;;5043511;28;20296;-73
2023/03/01 12:37:29;;;;;;;;;;;;;;;;;;5058297;28;19927;-74
2023/03/01 12:40:16;;;;;;;;;;;;;;;;;;5069163;28;20271;-74
2023/03/01 12:43:02;;;;;;;;;;;;;;;;;;5059879;28;19921;-73
2023/03/01 12:45:49;;;;;;;;;;;;;;;;;;5056460;28;19921;-74
2023/03/01 12:48:35;;;;;;;;;;;;;;;;;;5062268;28;19927;-74
2023/03/01 12:51:22;;;;;;;;;;;;;;;;;;5059760;28;19916;-74
2023/03/01 12:54:08;;;;;;;;;;;;;;;;;;5055616;28;19943;-74
2023/03/01 12:56:55;;;;;;;;;;;;;;;;;;5061322;28;20399;-74
2023/03/01 12:59:41;;;;;;;;;;;;;;;;;;5060877;28;19924;-74
2023/03/01 13:02:28;;;;;;;;;;;;;;;;;;5065470;28;20364;-74
2023/03/01 13:05:14;;;;;;;;;;;;;;;;;;5064348;28;19913;-74
2023/03/01 13:08:01;;;;;;;;;;;;;;;;;;5066061;28;19921;-74
2023/03/01 13:10:48;;;;;;;;;;;;;;;;;;5064445;28;19917;-74
2023/03/01 13:13:34;;;;;;;;;;;;;;;;;;5073887;28;19931;-73
2023/03/01 13:16:21;;;;;;;;;;;;;;;;;;5065442;28;20303;-74
2023/03/01 13:19:07;;;;;;;;;;;;;;;;;;5068884;28;20304;-73
2023/03/01 13:21:54;;;;;;;;;;;;;;;;;;5061300;28;19913;-74
2023/03/01 13:24:41;;;;;;;;;;;;;;;;;;5057608;28;19958;-73
2023/03/01 13:27:29;;;;;;;;;;;;;;;;;;5063092;28;19951;-73
2023/03/01 13:30:15;;;;;;;;;;;;;;;;;;5065278;28;19923;-73
2023/03/01 13:33:02;;;;;;;;;;;;;;;;;;5064958;28;20277;-74
2023/03/01 13:35:48;;;;;;;;;;;;;;;;;;5060899;28;19925;-75
2023/03/01 13:38:36;;;;;;;;;;;;;;;;;;5059566;28;20354;-73
2023/03/01 13:41:22;;;;;;;;;;;;;;;;;;5065191;28;19928;-73
2023/03/01 13:44:09;;;;;;;;;;;;;;;;;;5040335;28;20284;-73
2023/03/01 13:46:55;;;;;;;;;;;;;;;;;;5063274;28;19916;-73
2023/03/01 13:49:42;;;;;;;;;;;;;;;;;;5066111;28;20280;-73
2023/03/01 13:52:28;;;;;;;;;;;;;;;;;;5060190;28;19920;-73
2023/03/01 13:55:16;;;;;;;;;;;;;;;;;;5062284;28;19928;-73
2023/03/01 13:58:03;;;;;;;;;;;;;;;;;;5063392;28;19917;-73
2023/03/01 14:00:49;;;;;;;;;;;;;;;;;;5049159;28;19913;-73
2023/03/01 14:03:36;;;;;;;;;;;;;;;;;;5062028;28;20413;-73
2023/03/01 14:06:22;;;;;;;;;;;;;;;;;;5056988;28;19991;-73
2023/03/01 14:09:09;;;;;;;;;;;;;;;;;;5072480;28;19916;-73
2023/03/01 14:11:55;;;;;;;;;;;;;;;;;;5055389;28;20376;-73
2023/03/01 14:14:42;;;;;;;;;;;;;;;;;;5069168;28;19931;-73
2023/03/01 14:17:28;;;;;;;;;;;;;;;;;;5049569;28;20402;-74
2023/03/01 14:20:15;;;;;;;;;;;;;;;;;;5058076;28;19922;-73
2023/03/01 14:23:01;;;;;;;;;;;;;;;;;;5056338;28;19925;-74
2023/03/01 14:25:48;;;;;;;;;;;;;;;;;;5052936;28;19927;-73
2023/03/01 14:28:37;;;;;;;;;;;;;;;;;;5055841;28;19921;-73
2023/03/01 14:31:24;;;;;;;;;;;;;;;;;;5060614;28;19921;-74
2023/03/01 14:34:11;;;;;;;;;;;;;;;;;;5063393;28;19929;-73
2023/03/01 14:36:57;;;;;;;;;;;;;;;;;;5064323;28;19963;-73
2023/03/01 14:39:44;;;;;;;;;;;;;;;;;;5060368;28;19931;-74
2023/03/01 14:42:30;;;;;;;;;;;;;;;;;;5046555;28;19920;-75
2023/03/01 14:45:17;;;;;;;;;;;;;;;;;;5058570;28;20001;-74
2023/03/01 14:48:04;;;;;;;;;;;;;;;;;;5058584;28;19928;-74
2023/03/01 14:50:50;;;;;;;;;;;;;;;;;;5059132;28;19917;-74
2023/03/01 14:53:37;;;;;;;;;;;;;;;;;;5063868;28;19928;-75
2023/03/01 14:56:23;;;;;;;;;;;;;;;;;;5046750;28;19916;-74
2023/03/01 14:59:10;;;;;;;;;;;;;;;;;;5056470;28;19927;-74
2023/03/01 15:01:56;;;;;;;;;;;;;;;;;;5053569;28;19913;-74
2023/03/01 15:04:43;;;;;;;;;;;;;;;;;;5073703;28;19923;-74
2023/03/01 15:07:29;;;;;;;;;;;;;;;;;;5060381;28;19926;-74
2023/03/01 15:10:16;;;;;;;;;;;;;;;;;;5065531;28;19928;-73
2023/03/01 15:13:02;;;;;;;;;;;;;;;;;;5063386;28;19925;-73
2023/03/01 15:15:49;;;;;;;;;;;;;;;;;;5055287;28;19931;-74
2023/03/01 15:18:36;;;;;;;;;;;;;;;;;;5065422;28;19913;-72
2023/03/01 15:21:23;;;;;;;;;;;;;;;;;;5049894;28;19917;-72
2023/03/01 15:24:11;;;;;;;;;;;;;;;;;;5052330;28;19917;-74
2023/03/01 15:27:01;;;;;;;;;;;;;;;;;;5061666;28;19916;-73
2023/03/01 15:29:48;;;;;;;;;;;;;;;;;;5063383;28;19921;-73
2023/03/01 15:32:34;;;;;;;;;;;;;;;;;;5058128;28;19912;-73
2023/03/01 15:35:21;;;;;;;;;;;;;;;;;;5059026;28;20003;-73
2023/03/01 15:38:07;;;;;;;;;;;;;;;;;;5061349;28;19927;-74
2023/03/01 15:40:54;;;;;;;;;;;;;;;;;;5059852;28;19983;-73
2023/03/01 15:43:40;;;;;;;;;;;;;;;;;;5054158;28;19924;-75
2023/03/01 15:46:27;;;;;;;;;;;;;;;;;;5060034;28;19919;-74
2023/03/01 15:49:13;;;;;;;;;;;;;;;;;;5065253;28;19927;-73
2023/03/01 15:52:00;;;;;;;;;;;;;;;;;;5052090;28;19919;-73
2023/03/01 15:54:46;;;;;;;;;;;;;;;;;;5052888;28;19935;-73
2023/03/01 15:57:33;;;;;;;;;;;;;;;;;;5061788;28;19944;-74
2023/03/01 16:00:19;;;;;;;;;;;;;;;;;;5055949;28;19924;-74
2023/03/01 16:03:07;;;;;;;;;;;;;;;;;;5057984;28;19951;-73
2023/03/01 16:05:53;;;;;;;;;;;;;;;;;;5061574;28;19923;-74
2023/03/01 16:08:41;;;;;;;;;;;;;;;;;;5058725;28;19916;-74
2023/03/01 16:11:28;;;;;;;;;;;;;;;;;;5058135;28;19924;-74
2023/03/01 16:14:14;;;;;;;;;;;;;;;;;;5055220;28;19935;-74
2023/03/01 16:17:01;;;;;;;;;;;;;;;;;;5039524;28;19918;-74
2023/03/01 16:19:47;;;;;;;;;;;;;;;;;;5059509;28;20296;-74
2023/03/01 16:22:34;;;;;;;;;;;;;;;;;;5053222;28;19923;-75
2023/03/01 16:25:20;;;;;;;;;;;;;;;;;;5064412;28;19927;-74
2023/03/01 16:28:10;;;;;;;;;;;;;;;;;;5058328;28;19992;-73
2023/03/01 16:30:56;;;;;;;;;;;;;;;;;;5064331;28;19916;-73
2023/03/01 16:33:49;;;;;;;;;;;;;;;;;;5065985;28;19921;-74
2023/03/01 16:36:36;;;;;;;;;;;;;;;;;;5048203;28;19916;-74
2023/03/01 16:39:23;;;;;;;;;;;;;;;;;;5059839;28;19927;-75
2023/03/01 16:42:09;;;;;;;;;;;;;;;;;;5038689;28;19924;-75
2023/03/01 16:44:56;;;;;;;;;;;;;;;;;;5056049;28;19924;-74
2023/03/01 16:47:42;;;;;;;;;;;;;;;;;;5048711;28;19924;-74
2023/03/01 16:50:29;;;;;;;;;;;;;;;;;;5056156;28;19917;-73
2023/03/01 16:53:15;;;;;;;;;;;;;;;;;;5064079;28;19917;-78
2023/03/01 16:56:02;;;;;;;;;;;;;;;;;;5059151;28;19951;-74
2023/03/01 16:58:48;;;;;;;;;;;;;;;;;;5055902;28;19924;-74
2023/03/01 17:01:39;;;;;;;;;;;;;;;;;;5053141;28;19924;-75
2023/03/01 17:04:25;;;;;;;;;;;;;;;;;;5045886;28;19936;-75
2023/03/01 17:07:12;;;;;;;;;;;;;;;;;;5048506;28;19923;-72
2023/03/01 17:09:58;;;;;;;;;;;;;;;;;;5064245;28;19979;-74
2023/03/01 17:12:45;;;;;;;;;;;;;;;;;;5054955;28;19931;-75
2023/03/01 17:15:31;;;;;;;;;;;;;;;;;;5057820;28;20299;-74
2023/03/01 17:18:18;;;;;;;;;;;;;;;;;;5054265;28;19959;-75
2023/03/01 17:21:04;;;;;;;;;;;;;;;;;;5061554;28;19921;-74
2023/03/01 17:23:51;;;;;;;;;;;;;;;;;;5063051;28;19921;-74
2023/03/01 17:26:38;;;;;;;;;;;;;;;;;;5051637;28;19932;-75
2023/03/01 17:29:24;;;;;;;;;;;;;;;;;;5053002;28;20399;-74
2023/03/01 17:32:11;;;;;;;;;;;;;;;;;;5055399;28;20299;-73
2023/03/01 17:34:57;;;;;;;;;;;;;;;;;;5067952;28;20300;-74
2023/03/01 17:37:45;;;;;;;;;;;;;;;;;;5059677;28;19923;-74
2023/03/01 17:40:31;;;;;;;;;;;;;;;;;;5057493;28;20372;-74
2023/03/01 17:43:18;;;;;;;;;;;;;;;;;;5054648;28;19912;-75
2023/03/01 17:46:05;;;;;;;;;;;;;;;;;;5053793;28;19925;-72
2023/03/01 17:48:51;;;;;;;;;;;;;;;;;;5055541;28;19921;-74
2023/03/01 17:51:38;;;;;;;;;;;;;;;;;;5057688;28;20079;-74
2023/03/01 17:54:24;;;;;;;;;;;;;;;;;;5051102;28;19927;-74
2023/03/01 17:57:12;;;;;;;;;;;;;;;;;;5056905;28;20015;-74
2023/03/01 17:59:58;;;;;;;;;;;;;;;;;;5056992;28;19924;-74
2023/03/01 18:02:45;;;;;;;;;;;;;;;;;;5059024;28;19923;-74
2023/03/01 18:05:31;;;;;;;;;;;;;;;;;;5061204;28;19932;-74
2023/03/01 18:08:18;;;;;;;;;;;;;;;;;;5063815;28;19916;-73
2023/03/01 18:11:04;;;;;;;;;;;;;;;;;;5060690;28;19924;-74
2023/03/01 18:13:51;;;;;;;;;;;;;;;;;;5059744;28;19934;-73
2023/03/01 18:16:38;;;;;;;;;;;;;;;;;;5062833;28;19924;-73
2023/03/01 18:19:25;;;;;;;;;;;;;;;;;;5057680;28;19927;-73
2023/03/01 18:22:11;;;;;;;;;;;;;;;;;;5064443;28;19958;-74
2023/03/01 18:24:58;;;;;;;;;;;;;;;;;;5061707;28;19924;-74
2023/03/01 18:27:44;;;;;;;;;;;;;;;;;;5059077;28;20356;-74
2023/03/01 18:30:32;;;;;;;;;;;;;;;;;;5058280;28;19920;-74
2023/03/01 18:33:19;;;;;;;;;;;;;;;;;;5057014;28;20272;-74
2023/03/01 18:36:05;;;;;;;;;;;;;;;;;;5058960;28;19944;-73
2023/03/01 18:38:52;;;;;;;;;;;;;;;;;;5058296;28;20284;-73
2023/03/01 18:41:39;;;;;;;;;;;;;;;;;;5061017;28;20380;-74
2023/03/01 18:44:25;;;;;;;;;;;;;;;;;;5056128;28;19921;-73
2023/03/01 18:47:12;;;;;;;;;;;;;;;;;;5058716;28;19939;-73
2023/03/01 18:49:58;;;;;;;;;;;;;;;;;;5057049;28;19917;-73
2023/03/01 18:52:45;;;;;;;;;;;;;;;;;;5057561;28;20454;-78
2023/03/01 18:55:31;;;;;;;;;;;;;;;;;;5061102;28;19935;-74
2023/03/01 18:58:18;;;;;;;;;;;;;;;;;;5059281;28;20257;-74
2023/03/01 19:01:06;;;;;;;;;;;;;;;;;;5059611;28;19925;-73